createdAt,value
2018-10-04T00:00:59.667Z,0.73
2018-10-04T00:02:02.246Z,0.50
2018-10-04T00:03:05.190Z,0.50
2018-10-04T00:04:07.850Z,1.10
2018-10-04T00:05:10.596Z,1.27
2018-10-04T00:06:13.158Z,0.70
2018-10-04T00:07:15.722Z,1.03
2018-10-04T00:08:18.334Z,0.63
2018-10-04T00:09:20.914Z,0.60
2018-10-04T00:10:23.482Z,1.73
2018-10-04T00:11:26.034Z,0.83
2018-10-04T00:12:28.614Z,0.60
2018-10-04T00:13:31.174Z,0.80
2018-10-04T00:14:33.746Z,1.40
2018-10-04T00:15:36.363Z,0.70
2018-10-04T00:16:38.929Z,0.70
2018-10-04T00:17:41.504Z,0.57
2018-10-04T00:18:44.158Z,0.80
2018-10-04T00:19:46.714Z,0.87
2018-10-04T00:20:49.286Z,1.17
2018-10-04T00:21:51.879Z,1.03
2018-10-04T00:22:54.435Z,1.63
2018-10-04T00:23:57.038Z,0.77
2018-10-04T00:24:59.610Z,1.90
2018-10-04T00:26:02.183Z,0.60
2018-10-04T00:27:04.858Z,1.40
2018-10-04T00:28:07.451Z,0.63
2018-10-04T00:29:10.094Z,0.90
2018-10-04T00:30:12.673Z,0.53
2018-10-04T00:31:15.230Z,0.77
2018-10-04T00:32:17.829Z,1.10
2018-10-04T00:33:20.400Z,0.60
2018-10-04T00:34:22.990Z,0.80
2018-10-04T00:35:25.534Z,0.97
2018-10-04T00:36:28.086Z,1.20
2018-10-04T00:37:30.652Z,1.10
2018-10-04T00:38:33.230Z,0.97
2018-10-04T00:39:35.798Z,0.90
2018-10-04T00:40:38.382Z,0.70
2018-10-04T00:41:40.961Z,1.33
2018-10-04T00:42:43.622Z,1.27
2018-10-04T00:43:46.201Z,1.73
2018-10-04T00:44:48.757Z,0.70
2018-10-04T00:45:51.366Z,1.40
2018-10-04T00:46:53.978Z,0.97
2018-10-04T00:47:56.533Z,1.73
2018-10-04T00:48:59.086Z,0.63
2018-10-04T00:50:01.662Z,0.60
2018-10-04T00:51:04.266Z,0.60
2018-10-04T00:52:06.842Z,0.50
2018-10-04T00:53:09.398Z,0.60
2018-10-04T00:54:11.959Z,0.60
2018-10-04T00:55:14.506Z,0.50
2018-10-04T00:56:17.069Z,0.47
2018-10-04T00:57:19.634Z,0.73
2018-10-04T00:58:22.221Z,0.53
2018-10-04T00:59:24.778Z,0.43
2018-10-04T01:00:27.372Z,0.43
2018-10-04T01:01:29.926Z,0.43
2018-10-04T01:02:32.497Z,0.50
2018-10-04T01:03:35.091Z,0.70
2018-10-04T01:04:37.694Z,0.80
2018-10-04T01:05:40.270Z,0.40
2018-10-04T01:06:43.041Z,0.50
2018-10-04T01:07:45.626Z,0.40
2018-10-04T01:08:48.190Z,0.30
2018-10-04T01:09:50.762Z,0.30
2018-10-04T01:10:53.325Z,0.63
2018-10-04T01:11:55.911Z,0.50
2018-10-04T01:12:58.470Z,0.30
2018-10-04T01:14:01.046Z,0.30
2018-10-04T01:15:03.685Z,0.87
2018-10-04T01:16:06.390Z,0.57
2018-10-04T01:17:08.931Z,0.77
2018-10-04T01:18:22.818Z,0.40
2018-10-04T01:19:25.526Z,0.50
2018-10-04T01:20:28.122Z,0.50
2018-10-04T01:21:30.754Z,0.70
2018-10-04T01:22:33.326Z,0.83
2018-10-04T01:23:35.895Z,0.50
2018-10-04T01:24:38.470Z,0.90
2018-10-04T01:25:41.062Z,1.07
2018-10-04T01:26:43.646Z,0.57
2018-10-04T01:27:46.234Z,0.40
2018-10-04T01:28:49.449Z,0.80
2018-10-04T01:29:52.018Z,0.67
2018-10-04T01:30:54.610Z,0.57
2018-10-04T01:31:57.158Z,0.60
2018-10-04T01:33:00.087Z,0.50
2018-10-04T01:34:02.669Z,0.40
2018-10-04T01:35:05.243Z,0.50
2018-10-04T01:36:07.814Z,0.60
2018-10-04T01:37:10.402Z,0.57
2018-10-04T01:38:13.034Z,0.77
2018-10-04T01:39:15.622Z,0.40
2018-10-04T01:40:18.186Z,0.50
2018-10-04T01:41:20.756Z,0.30
2018-10-04T01:42:23.341Z,0.40
2018-10-04T01:43:25.913Z,0.40
2018-10-04T01:44:28.478Z,0.60
2018-10-04T01:45:31.041Z,0.70
2018-10-04T01:46:33.616Z,0.27
2018-10-04T01:47:36.239Z,1.17
2018-10-04T01:48:38.797Z,0.40
2018-10-04T01:49:41.359Z,1.33
2018-10-04T01:50:43.910Z,0.20
2018-10-04T01:51:46.454Z,0.20
2018-10-04T01:52:49.171Z,0.63
2018-10-04T01:53:51.838Z,0.60
2018-10-04T01:54:54.440Z,0.20
2018-10-04T01:55:56.994Z,0.40
2018-10-04T01:56:59.583Z,0.30
2018-10-04T01:58:02.143Z,0.83
2018-10-04T01:59:04.778Z,0.60
2018-10-04T02:00:07.379Z,0.50
2018-10-04T02:01:09.944Z,0.50
2018-10-04T02:02:12.503Z,1.13
2018-10-04T02:03:15.058Z,0.33
2018-10-04T02:04:18.018Z,0.73
2018-10-04T02:05:21.798Z,1.47
2018-10-04T02:06:24.346Z,0.90
2018-10-04T02:07:26.938Z,0.83
2018-10-04T02:08:29.495Z,1.90
2018-10-04T02:09:32.038Z,0.50
2018-10-04T02:10:34.654Z,0.57
2018-10-04T02:11:37.231Z,1.17
2018-10-04T02:12:39.830Z,0.47
2018-10-04T02:13:42.390Z,1.07
2018-10-04T02:14:44.950Z,0.93
2018-10-04T02:15:47.554Z,1.77
2018-10-04T02:16:50.247Z,1.50
2018-10-04T02:17:52.806Z,0.80
2018-10-04T02:18:55.369Z,0.90
2018-10-04T02:19:57.954Z,2.10
2018-10-04T02:21:00.514Z,0.37
2018-10-04T02:22:03.098Z,0.80
2018-10-04T02:23:05.726Z,0.37
2018-10-04T02:24:08.290Z,1.53
2018-10-04T02:25:10.860Z,2.73
2018-10-04T02:26:13.414Z,0.97
2018-10-04T02:27:15.978Z,0.40
2018-10-04T02:28:18.530Z,0.67
2018-10-04T02:29:21.093Z,1.07
2018-10-04T02:30:23.669Z,0.60
2018-10-04T02:31:26.307Z,0.97
2018-10-04T02:32:28.886Z,1.30
2018-10-04T02:33:31.458Z,0.60
2018-10-04T02:34:34.027Z,0.73
2018-10-04T02:35:36.578Z,0.80
2018-10-04T02:36:39.138Z,0.40
2018-10-04T02:37:42.538Z,1.23
2018-10-04T02:38:45.086Z,0.63
2018-10-04T02:39:47.658Z,0.60
2018-10-04T02:40:50.246Z,0.57
2018-10-04T02:41:52.797Z,0.30
2018-10-04T02:42:55.359Z,0.53
2018-10-04T02:43:57.914Z,0.77
2018-10-04T02:45:00.517Z,0.47
2018-10-04T02:46:03.115Z,0.40
2018-10-04T02:47:06.322Z,0.60
2018-10-04T02:48:08.907Z,0.80
2018-10-04T02:49:11.454Z,0.67
2018-10-04T02:50:14.010Z,0.43
2018-10-04T02:51:16.670Z,0.33
2018-10-04T02:52:19.243Z,1.30
2018-10-04T02:53:21.810Z,1.10
2018-10-04T02:54:25.808Z,0.40
2018-10-04T02:55:33.880Z,0.30
2018-10-04T02:56:42.102Z,0.43
2018-10-04T02:57:44.652Z,0.50
2018-10-04T02:58:47.226Z,0.40
2018-10-04T02:59:49.822Z,0.50
2018-10-04T03:00:52.397Z,0.37
2018-10-04T03:01:54.965Z,0.40
2018-10-04T03:02:57.518Z,0.80
2018-10-04T03:04:00.098Z,1.13
2018-10-04T03:05:02.674Z,0.40
2018-10-04T03:06:05.254Z,0.90
2018-10-04T03:07:07.902Z,0.47
2018-10-04T03:08:10.478Z,0.57
2018-10-04T03:09:13.107Z,0.63
2018-10-04T03:10:15.710Z,0.47
2018-10-04T03:11:18.314Z,0.30
2018-10-04T03:12:20.963Z,0.40
2018-10-04T03:13:23.546Z,0.50
2018-10-04T03:14:26.106Z,0.50
2018-10-04T03:15:28.987Z,1.33
2018-10-04T03:16:31.551Z,0.20
2018-10-04T03:17:34.111Z,0.40
2018-10-04T03:18:36.674Z,0.40
2018-10-04T03:19:39.246Z,0.37
2018-10-04T03:20:41.835Z,0.53
2018-10-04T03:21:44.398Z,0.37
2018-10-04T03:22:46.954Z,0.67
2018-10-04T03:23:49.502Z,0.97
2018-10-04T03:24:52.057Z,0.30
2018-10-04T03:25:54.629Z,0.63
2018-10-04T03:26:57.195Z,0.67
2018-10-04T03:27:59.760Z,0.43
2018-10-04T03:29:02.454Z,0.60
2018-10-04T03:30:05.148Z,0.60
2018-10-04T03:31:07.707Z,0.40
2018-10-04T03:32:10.274Z,0.60
2018-10-04T03:33:12.854Z,1.50
2018-10-04T03:34:15.424Z,0.23
2018-10-04T03:35:17.986Z,1.23
2018-10-04T03:36:20.569Z,1.50
2018-10-04T03:37:23.130Z,0.53
2018-10-04T03:38:25.686Z,1.37
2018-10-04T03:39:28.254Z,0.43
2018-10-04T03:40:30.809Z,0.70
2018-10-04T03:41:33.655Z,0.87
2018-10-04T03:42:36.194Z,1.30
2018-10-04T03:43:38.758Z,1.30
2018-10-04T03:44:41.300Z,0.90
2018-10-04T03:45:43.877Z,0.60
2018-10-04T03:46:46.426Z,1.23
2018-10-04T03:47:48.990Z,1.07
2018-10-04T03:48:51.546Z,0.60
2018-10-04T03:49:54.148Z,0.93
2018-10-04T03:50:56.718Z,0.60
2018-10-04T03:51:59.274Z,0.50
2018-10-04T03:53:01.833Z,1.57
2018-10-04T03:54:04.494Z,0.60
2018-10-04T03:55:07.334Z,0.70
2018-10-04T03:56:09.910Z,0.60
2018-10-04T03:57:12.496Z,0.30
2018-10-04T03:58:15.087Z,0.63
2018-10-04T04:00:28.682Z,0.40
2018-10-04T04:01:31.266Z,2.43
2018-10-04T04:02:33.840Z,0.60
2018-10-04T04:03:36.404Z,0.67
2018-10-04T04:04:38.966Z,0.97
2018-10-04T04:05:41.526Z,0.33
2018-10-04T04:06:44.094Z,0.57
2018-10-04T04:07:46.667Z,0.50
2018-10-04T04:08:49.286Z,1.23
2018-10-04T04:09:51.846Z,1.57
2018-10-04T04:10:54.414Z,1.83
2018-10-04T04:11:57.074Z,0.60
2018-10-04T04:12:59.584Z,0.60
2018-10-04T04:14:02.170Z,0.50
2018-10-04T04:15:05.290Z,2.10
2018-10-04T04:16:07.882Z,1.20
2018-10-04T04:17:10.449Z,2.43
2018-10-04T04:18:13.021Z,1.60
2018-10-04T04:19:15.588Z,1.33
2018-10-04T04:20:18.201Z,1.10
2018-10-04T04:21:20.766Z,0.50
2018-10-04T04:22:23.403Z,2.40
2018-10-04T04:23:25.934Z,0.40
2018-10-04T04:24:28.504Z,0.63
2018-10-04T04:25:31.062Z,0.50
2018-10-04T04:26:33.665Z,0.80
2018-10-04T04:27:36.238Z,1.40
2018-10-04T04:28:38.802Z,0.80
2018-10-04T04:29:41.470Z,1.43
2018-10-04T04:30:44.071Z,0.50
2018-10-04T04:31:46.682Z,0.80
2018-10-04T04:32:49.267Z,0.60
2018-10-04T04:33:51.842Z,0.60
2018-10-04T04:34:54.404Z,2.03
2018-10-04T04:35:56.962Z,1.80
2018-10-04T04:36:59.531Z,1.60
2018-10-04T04:38:02.105Z,2.33
2018-10-04T04:39:06.433Z,2.07
2018-10-04T04:40:08.994Z,1.93
2018-10-04T04:41:11.559Z,1.73
2018-10-04T04:42:14.213Z,2.20
2018-10-04T04:43:16.911Z,1.67
2018-10-04T04:44:19.509Z,0.97
2018-10-04T04:45:22.067Z,2.40
2018-10-04T04:46:24.656Z,2.43
2018-10-04T04:47:27.218Z,0.83
2018-10-04T04:48:29.778Z,3.80
2018-10-04T04:49:32.331Z,1.60
2018-10-04T04:50:34.902Z,1.40
2018-10-04T04:51:37.478Z,1.67
2018-10-04T04:52:40.136Z,1.50
2018-10-04T04:53:43.593Z,1.40
2018-10-04T04:55:20.095Z,0.93
2018-10-04T04:56:22.650Z,1.53
2018-10-04T04:57:25.203Z,1.67
2018-10-04T04:58:27.774Z,1.77
2018-10-04T04:59:30.336Z,1.87
2018-10-04T05:00:34.006Z,1.27
2018-10-04T05:01:36.581Z,1.53
2018-10-04T05:02:39.130Z,0.97
2018-10-04T05:03:41.695Z,0.97
2018-10-04T05:04:44.258Z,1.43
2018-10-04T05:05:46.828Z,1.47
2018-10-04T05:06:49.394Z,0.87
2018-10-04T05:07:52.862Z,0.67
2018-10-04T05:08:55.434Z,2.50
2018-10-04T05:09:57.990Z,0.50
2018-10-04T05:11:00.554Z,1.27
2018-10-04T05:12:03.110Z,1.27
2018-10-04T05:13:06.514Z,1.23
2018-10-04T05:14:09.144Z,2.93
2018-10-04T05:15:11.710Z,2.13
2018-10-04T05:16:14.256Z,2.10
2018-10-04T05:17:16.832Z,2.67
2018-10-04T05:18:19.398Z,1.80
2018-10-04T05:19:21.958Z,1.00
2018-10-04T05:20:24.526Z,1.47
2018-10-04T05:21:27.082Z,1.07
2018-10-04T05:22:29.694Z,2.10
2018-10-04T05:23:32.224Z,1.30
2018-10-04T05:24:34.782Z,0.70
2018-10-04T05:25:37.346Z,1.37
2018-10-04T05:26:39.927Z,1.87
2018-10-04T05:27:42.546Z,1.43
2018-10-04T05:28:45.124Z,1.70
2018-10-04T05:29:47.695Z,1.50
2018-10-04T05:30:50.250Z,0.73
2018-10-04T05:31:52.904Z,1.10
2018-10-04T05:32:55.454Z,1.87
2018-10-04T05:33:58.016Z,2.00
2018-10-04T05:35:00.742Z,1.07
2018-10-04T05:36:03.302Z,1.00
2018-10-04T05:37:05.909Z,2.10
2018-10-04T05:38:08.438Z,2.07
2018-10-04T05:39:11.010Z,2.23
2018-10-04T05:40:13.678Z,1.43
2018-10-04T05:41:16.234Z,1.37
2018-10-04T05:42:18.850Z,1.00
2018-10-04T05:43:21.402Z,3.50
2018-10-04T05:44:23.975Z,1.93
2018-10-04T05:45:26.583Z,1.00
2018-10-04T05:46:29.142Z,2.50
2018-10-04T05:47:31.734Z,2.60
2018-10-04T05:48:34.304Z,1.00
2018-10-04T05:49:36.902Z,3.07
2018-10-04T05:50:39.462Z,0.70
2018-10-04T05:51:42.042Z,2.23
2018-10-04T05:52:44.596Z,0.97
2018-10-04T05:53:47.163Z,1.00
2018-10-04T05:54:49.744Z,1.77
2018-10-04T05:55:52.469Z,1.33
2018-10-04T05:56:55.018Z,2.90
2018-10-04T05:57:57.575Z,1.87
2018-10-04T05:59:00.162Z,0.87
2018-10-04T06:00:13.908Z,2.33
2018-10-04T06:01:16.482Z,1.60
2018-10-04T06:02:19.090Z,2.00
2018-10-04T06:03:21.667Z,3.03
2018-10-04T06:04:24.814Z,0.80
2018-10-04T06:05:27.585Z,1.27
2018-10-04T06:06:30.090Z,1.67
2018-10-04T06:07:32.642Z,2.97
2018-10-04T06:08:35.198Z,2.00
2018-10-04T06:09:37.839Z,1.03
2018-10-04T06:10:40.406Z,1.57
2018-10-04T06:11:42.969Z,2.03
2018-10-04T06:12:45.558Z,0.93
2018-10-04T06:13:48.122Z,1.83
2018-10-04T06:14:50.743Z,1.27
2018-10-04T06:15:53.322Z,6.00
2018-10-04T06:16:55.882Z,2.73
2018-10-04T06:17:58.478Z,1.70
2018-10-04T06:19:01.070Z,1.73
2018-10-04T06:20:03.719Z,1.23
2018-10-04T06:21:06.316Z,2.53
2018-10-04T06:22:08.895Z,0.97
2018-10-04T06:23:11.468Z,1.37
2018-10-04T06:24:14.190Z,1.77
2018-10-04T06:25:16.744Z,1.57
2018-10-04T06:26:19.298Z,2.13
2018-10-04T06:27:21.890Z,4.63
2018-10-04T06:28:24.450Z,3.40
2018-10-04T06:29:27.014Z,4.23
2018-10-04T06:30:29.594Z,2.13
2018-10-04T06:31:32.182Z,2.43
2018-10-04T06:32:34.756Z,2.33
2018-10-04T06:33:37.377Z,2.60
2018-10-04T06:34:39.942Z,3.03
2018-10-04T06:35:42.538Z,2.10
2018-10-04T06:36:45.096Z,2.60
2018-10-04T06:37:47.773Z,1.33
2018-10-04T06:38:50.338Z,4.10
2018-10-04T06:39:52.910Z,3.17
2018-10-04T06:40:55.482Z,2.30
2018-10-04T06:41:58.067Z,1.27
2018-10-04T06:43:00.618Z,3.40
2018-10-04T06:44:03.297Z,2.00
2018-10-04T06:45:05.923Z,1.90
2018-10-04T06:46:08.494Z,3.97
2018-10-04T06:47:11.292Z,0.60
2018-10-04T06:48:13.858Z,1.83
2018-10-04T06:49:16.418Z,1.57
2018-10-04T06:50:19.034Z,3.00
2018-10-04T06:51:21.550Z,2.13
2018-10-04T06:52:24.122Z,3.07
2018-10-04T06:53:26.690Z,1.53
2018-10-04T06:54:29.246Z,1.43
2018-10-04T06:55:31.829Z,1.53
2018-10-04T06:56:34.510Z,2.07
2018-10-04T06:57:37.068Z,4.13
2018-10-04T06:58:39.642Z,3.17
2018-10-04T06:59:42.211Z,2.80
2018-10-04T07:00:44.806Z,4.93
2018-10-04T07:01:47.378Z,1.50
2018-10-04T07:02:49.935Z,1.20
2018-10-04T07:03:52.519Z,1.27
2018-10-04T07:04:55.074Z,1.33
2018-10-04T07:05:57.661Z,1.10
2018-10-04T07:07:00.242Z,3.17
2018-10-04T07:08:02.790Z,1.20
2018-10-04T07:09:07.550Z,1.40
2018-10-04T07:10:10.180Z,3.37
2018-10-04T07:11:12.696Z,1.27
2018-10-04T07:12:15.408Z,2.53
2018-10-04T07:13:17.982Z,2.63
2018-10-04T07:14:20.578Z,3.43
2018-10-04T07:15:23.134Z,2.80
2018-10-04T07:16:25.910Z,1.57
2018-10-04T07:17:28.553Z,2.40
2018-10-04T07:18:31.114Z,3.60
2018-10-04T07:19:33.662Z,3.30
2018-10-04T07:20:36.336Z,1.30
2018-10-04T07:21:38.882Z,0.73
2018-10-04T07:22:41.454Z,1.67
2018-10-04T07:23:44.014Z,1.70
2018-10-04T07:24:46.566Z,1.47
2018-10-04T07:25:49.126Z,0.70
2018-10-04T07:26:51.686Z,1.87
2018-10-04T07:27:54.246Z,1.20
2018-10-04T07:28:56.834Z,1.07
2018-10-04T07:29:59.378Z,2.50
2018-10-04T07:31:01.947Z,1.93
2018-10-04T07:32:04.533Z,2.37
2018-10-04T07:33:07.103Z,1.03
2018-10-04T07:34:09.672Z,3.90
2018-10-04T07:35:12.230Z,3.43
2018-10-04T07:36:14.794Z,0.83
2018-10-04T07:37:17.388Z,1.57
2018-10-04T07:38:19.954Z,1.13
2018-10-04T07:39:22.522Z,2.10
2018-10-04T07:40:25.082Z,3.53
2018-10-04T07:41:27.644Z,2.30
2018-10-04T07:42:30.208Z,3.40
2018-10-04T07:43:32.785Z,1.53
2018-10-04T07:44:35.342Z,3.47
2018-10-04T07:45:37.914Z,1.00
2018-10-04T07:46:40.467Z,1.50
2018-10-04T07:47:43.022Z,2.07
2018-10-04T07:48:45.592Z,1.87
2018-10-04T07:49:48.158Z,1.67
2018-10-04T07:50:50.729Z,1.73
2018-10-04T07:51:53.302Z,1.10
2018-10-04T07:52:55.962Z,2.67
2018-10-04T07:53:58.532Z,1.20
2018-10-04T07:55:01.095Z,1.00
2018-10-04T07:56:03.906Z,2.03
2018-10-04T07:57:06.482Z,1.30
2018-10-04T07:58:09.046Z,1.37
2018-10-04T07:59:11.605Z,1.20
2018-10-04T08:00:14.199Z,0.80
2018-10-04T08:01:16.754Z,0.63
2018-10-04T08:02:19.322Z,1.40
2018-10-04T08:03:21.882Z,1.00
2018-10-04T08:04:24.434Z,1.10
2018-10-04T08:05:26.998Z,1.83
2018-10-04T08:06:29.736Z,4.20
2018-10-04T08:07:32.172Z,0.83
2018-10-04T08:08:34.732Z,1.33
2018-10-04T08:09:37.290Z,3.20
2018-10-04T08:10:39.841Z,2.20
2018-10-04T08:11:42.402Z,1.47
2018-10-04T08:12:44.965Z,1.83
2018-10-04T08:13:47.878Z,4.33
2018-10-04T08:14:50.447Z,2.17
2018-10-04T08:15:53.026Z,3.27
2018-10-04T08:16:55.610Z,1.20
2018-10-04T08:17:58.170Z,2.10
2018-10-04T08:19:00.778Z,1.50
2018-10-04T08:20:03.629Z,1.30
2018-10-04T08:21:06.282Z,1.07
2018-10-04T08:22:08.878Z,0.90
2018-10-04T08:23:11.467Z,2.20
2018-10-04T08:24:14.026Z,2.07
2018-10-04T08:25:16.566Z,1.97
2018-10-04T08:26:19.138Z,1.23
2018-10-04T08:27:21.813Z,1.90
2018-10-04T08:28:24.390Z,1.20
2018-10-04T08:29:26.946Z,3.53
2018-10-04T08:30:29.510Z,2.37
2018-10-04T08:31:32.092Z,1.57
2018-10-04T08:32:34.726Z,0.90
2018-10-04T08:33:37.321Z,2.53
2018-10-04T08:34:39.966Z,1.17
2018-10-04T08:35:42.538Z,3.17
2018-10-04T08:36:45.131Z,2.10
2018-10-04T08:37:47.723Z,3.03
2018-10-04T08:38:50.296Z,2.23
2018-10-04T08:39:52.854Z,2.23
2018-10-04T08:40:55.417Z,1.97
2018-10-04T08:41:58.019Z,3.53
2018-10-04T08:43:00.562Z,3.20
2018-10-04T08:44:03.162Z,2.63
2018-10-04T08:45:05.800Z,1.80
2018-10-04T08:46:08.382Z,2.53
2018-10-04T08:47:10.945Z,1.23
2018-10-04T08:48:13.542Z,1.20
2018-10-04T08:49:16.076Z,1.33
2018-10-04T08:50:18.640Z,1.53
2018-10-04T08:51:26.839Z,1.53
2018-10-04T08:52:35.087Z,1.13
2018-10-04T08:53:37.650Z,2.13
2018-10-04T08:54:40.205Z,2.13
2018-10-04T08:55:42.780Z,2.13
2018-10-04T08:56:45.342Z,0.60
2018-10-04T08:57:47.894Z,0.73
2018-10-04T08:58:50.463Z,1.00
2018-10-04T08:59:53.014Z,0.70
2018-10-04T09:00:55.643Z,2.47
2018-10-04T09:01:58.203Z,0.70
2018-10-04T09:03:03.054Z,1.03
2018-10-04T09:04:05.635Z,1.57
2018-10-04T09:05:08.218Z,1.33
2018-10-04T09:06:10.767Z,0.40
2018-10-04T09:07:13.466Z,1.97
2018-10-04T09:09:26.030Z,1.77
2018-10-04T09:10:28.627Z,1.47
2018-10-04T09:11:31.198Z,2.17
2018-10-04T09:12:33.754Z,1.00
2018-10-04T09:13:36.307Z,0.93
2018-10-04T09:14:38.858Z,0.60
2018-10-04T09:15:41.642Z,1.60
2018-10-04T09:16:44.197Z,2.00
2018-10-04T09:17:46.906Z,1.40
2018-10-04T09:18:49.494Z,2.03
2018-10-04T09:19:52.095Z,0.50
2018-10-04T09:20:54.682Z,1.50
2018-10-04T09:21:57.242Z,0.80
2018-10-04T09:22:59.809Z,1.07
2018-10-04T09:24:02.371Z,1.00
2018-10-04T09:25:04.979Z,1.10
2018-10-04T09:26:07.625Z,1.07
2018-10-04T09:27:10.158Z,1.80
2018-10-04T09:28:13.714Z,0.70
2018-10-04T09:29:16.267Z,0.73
2018-10-04T09:30:24.386Z,0.97
2018-10-04T09:31:34.670Z,0.80
2018-10-04T09:32:37.250Z,1.67
2018-10-04T09:33:39.818Z,0.73
2018-10-04T09:34:42.377Z,0.73
2018-10-04T09:35:44.930Z,1.80
2018-10-04T09:36:47.486Z,1.50
2018-10-04T09:37:50.082Z,0.90
2018-10-04T09:38:52.642Z,1.17
2018-10-04T09:39:55.194Z,1.07
2018-10-04T09:40:57.898Z,1.10
2018-10-04T09:42:00.487Z,1.07
2018-10-04T09:43:03.054Z,1.07
2018-10-04T09:44:05.754Z,1.50
2018-10-04T09:45:11.064Z,1.70
2018-10-04T09:46:13.698Z,1.43
2018-10-04T09:47:21.646Z,2.00
2018-10-04T09:48:24.243Z,0.50
2018-10-04T09:49:26.806Z,0.97
2018-10-04T09:50:34.270Z,0.87
2018-10-04T09:51:42.330Z,0.80
2018-10-04T09:52:44.885Z,2.00
2018-10-04T09:53:58.640Z,1.00
2018-10-04T09:55:06.674Z,1.10
2018-10-04T09:56:14.870Z,0.70
2018-10-04T09:57:23.066Z,0.93
2018-10-04T09:58:25.642Z,0.60
2018-10-04T09:59:28.216Z,2.00
2018-10-04T10:00:36.452Z,3.67
2018-10-04T10:01:44.423Z,1.87
2018-10-04T10:02:53.766Z,1.10
2018-10-04T10:03:56.406Z,0.73
2018-10-04T10:04:59.030Z,1.30
2018-10-04T10:06:01.627Z,0.93
2018-10-04T10:07:04.238Z,0.90
2018-10-04T10:08:06.853Z,2.87
2018-10-04T10:09:09.435Z,1.57
2018-10-04T10:10:12.083Z,2.30
2018-10-04T10:11:14.662Z,7.63
2018-10-04T10:12:17.246Z,1.70
2018-10-04T10:13:19.846Z,2.47
2018-10-04T10:14:22.506Z,1.77
2018-10-04T10:15:25.070Z,3.90
2018-10-04T10:16:27.630Z,0.97
2018-10-04T10:17:30.170Z,3.27
2018-10-04T10:18:32.738Z,1.00
2018-10-04T10:19:35.400Z,1.10
2018-10-04T10:20:37.954Z,2.13
2018-10-04T10:21:40.519Z,1.13
2018-10-04T10:22:43.058Z,1.07
2018-10-04T10:23:45.650Z,1.80
2018-10-04T10:24:48.211Z,0.93
2018-10-04T10:25:50.774Z,1.70
2018-10-04T10:26:53.362Z,0.33
2018-10-04T10:27:55.919Z,1.33
2018-10-04T10:28:58.475Z,1.90
2018-10-04T10:30:01.055Z,1.50
2018-10-04T10:31:03.870Z,1.47
2018-10-04T10:32:06.422Z,0.87
2018-10-04T10:33:08.974Z,1.07
2018-10-04T10:34:11.530Z,0.77
2018-10-04T10:35:14.130Z,1.33
2018-10-04T10:36:16.682Z,0.70
2018-10-04T10:37:19.242Z,2.30
2018-10-04T10:38:21.815Z,1.97
2018-10-04T10:39:24.394Z,1.10
2018-10-04T10:40:27.049Z,0.87
2018-10-04T10:41:29.536Z,2.30
2018-10-04T10:42:32.090Z,1.77
2018-10-04T10:43:34.666Z,1.60
2018-10-04T10:44:37.233Z,2.80
2018-10-04T10:45:39.794Z,2.30
2018-10-04T10:46:42.395Z,3.20
2018-10-04T10:47:44.966Z,1.77
2018-10-04T10:48:47.530Z,1.53
2018-10-04T10:49:50.099Z,1.77
2018-10-04T10:50:52.654Z,0.93
2018-10-04T10:51:56.657Z,1.40
2018-10-04T10:52:59.291Z,2.00
2018-10-04T10:54:01.856Z,1.70
2018-10-04T10:55:04.492Z,2.80
2018-10-04T10:56:07.082Z,1.60
2018-10-04T10:57:09.653Z,0.80
2018-10-04T10:58:12.206Z,1.90
2018-10-04T10:59:14.767Z,0.97
2018-10-04T11:00:17.330Z,1.93
2018-10-04T11:01:19.883Z,3.63
2018-10-04T11:02:22.446Z,2.17
2018-10-04T11:03:25.038Z,1.03
2018-10-04T11:04:27.655Z,3.43
2018-10-04T11:05:30.218Z,1.53
2018-10-04T11:06:32.782Z,2.00
2018-10-04T11:07:35.406Z,1.20
2018-10-04T11:08:37.995Z,0.70
2018-10-04T11:09:40.544Z,1.57
2018-10-04T11:10:43.106Z,3.33
2018-10-04T11:11:45.658Z,2.40
2018-10-04T11:12:48.214Z,2.27
2018-10-04T11:13:50.757Z,1.93
2018-10-04T11:14:53.363Z,2.10
2018-10-04T11:15:55.922Z,2.77
2018-10-04T11:16:58.540Z,2.30
2018-10-04T11:18:01.230Z,1.00
2018-10-04T11:19:03.706Z,1.23
2018-10-04T11:20:06.278Z,1.83
2018-10-04T11:21:08.854Z,2.30
2018-10-04T11:22:11.408Z,0.90
2018-10-04T11:23:14.009Z,2.30
2018-10-04T11:24:16.620Z,3.00
2018-10-04T11:25:19.179Z,1.83
2018-10-04T11:26:21.763Z,2.90
2018-10-04T11:27:24.358Z,1.07
2018-10-04T11:28:26.910Z,2.07
2018-10-04T11:29:29.479Z,2.00
2018-10-04T11:30:32.056Z,3.13
2018-10-04T11:31:34.658Z,2.17
2018-10-04T11:32:39.510Z,3.60
2018-10-04T11:33:42.090Z,1.93
2018-10-04T11:34:44.711Z,2.57
2018-10-04T11:35:47.309Z,1.50
2018-10-04T11:36:49.962Z,1.83
2018-10-04T11:37:52.546Z,3.37
2018-10-04T11:38:55.171Z,1.77
2018-10-04T11:39:57.741Z,3.23
2018-10-04T11:41:00.370Z,3.67
2018-10-04T11:42:03.018Z,1.67
2018-10-04T11:43:06.686Z,2.70
2018-10-04T11:44:13.870Z,4.27
2018-10-04T11:45:21.639Z,1.73
2018-10-04T11:46:24.914Z,3.17
2018-10-04T11:47:32.458Z,1.80
2018-10-04T11:48:36.890Z,2.97
2018-10-04T11:49:39.483Z,1.50
2018-10-04T11:50:42.038Z,1.90
2018-10-04T11:51:44.665Z,2.63
2018-10-04T11:52:47.250Z,3.97
2018-10-04T11:53:49.882Z,1.63
2018-10-04T11:54:52.576Z,5.10
2018-10-04T11:55:55.364Z,3.13
2018-10-04T11:56:57.995Z,5.53
2018-10-04T11:58:00.634Z,5.27
2018-10-04T11:59:03.186Z,3.50
2018-10-04T12:00:05.963Z,5.03
2018-10-04T12:01:08.656Z,2.70
2018-10-04T12:02:11.272Z,4.33
2018-10-04T12:03:13.890Z,4.10
2018-10-04T12:04:16.458Z,3.83
2018-10-04T12:05:19.034Z,5.77
2018-10-04T12:06:21.570Z,4.57
2018-10-04T12:07:24.122Z,6.47
2018-10-04T12:08:26.690Z,5.60
2018-10-04T12:09:29.282Z,4.40
2018-10-04T12:10:31.872Z,6.10
2018-10-04T12:11:34.418Z,6.00
2018-10-04T12:12:37.032Z,4.60
2018-10-04T12:13:39.571Z,6.00
2018-10-04T12:14:42.173Z,4.90
2018-10-04T12:15:44.734Z,4.37
2018-10-04T12:16:47.374Z,4.27
2018-10-04T12:17:49.929Z,6.87
2018-10-04T12:18:52.543Z,3.40
2018-10-04T12:19:55.066Z,3.27
2018-10-04T12:20:57.642Z,7.43
2018-10-04T12:22:00.232Z,8.77
2018-10-04T12:23:02.782Z,5.17
2018-10-04T12:24:05.356Z,7.63
2018-10-04T12:25:07.974Z,9.23
2018-10-04T12:26:10.518Z,6.97
2018-10-04T12:27:13.167Z,6.87
2018-10-04T12:28:15.723Z,7.90
2018-10-04T12:29:18.299Z,6.80
2018-10-04T12:30:20.865Z,6.03
2018-10-04T12:31:23.636Z,5.77
2018-10-04T12:32:26.026Z,4.53
2018-10-04T12:33:28.616Z,6.97
2018-10-04T12:34:31.199Z,6.20
2018-10-04T12:35:33.754Z,3.63
2018-10-04T12:36:36.315Z,5.60
2018-10-04T12:37:45.461Z,5.90
2018-10-04T12:38:48.038Z,2.67
2018-10-04T12:39:50.602Z,3.47
2018-10-04T12:40:53.153Z,3.30
2018-10-04T12:41:55.706Z,2.67
2018-10-04T12:42:58.259Z,3.70
2018-10-04T12:44:00.880Z,3.80
2018-10-04T12:45:03.506Z,2.20
2018-10-04T12:46:06.166Z,2.97
2018-10-04T12:47:08.734Z,1.27
2018-10-04T12:48:11.302Z,1.43
2018-10-04T12:49:13.870Z,1.57
2018-10-04T12:50:16.462Z,2.17
2018-10-04T12:51:19.043Z,2.60
2018-10-04T12:52:21.624Z,1.33
2018-10-04T12:53:24.169Z,3.60
2018-10-04T12:54:26.734Z,1.67
2018-10-04T12:55:29.321Z,1.97
2018-10-04T12:56:31.879Z,1.10
2018-10-04T12:57:35.229Z,1.30
2018-10-04T12:58:37.786Z,1.80
2018-10-04T12:59:40.423Z,1.60
2018-10-04T13:00:43.040Z,1.10
2018-10-04T13:01:45.563Z,1.83
2018-10-04T13:02:48.126Z,1.30
2018-10-04T13:03:50.690Z,2.60
2018-10-04T13:04:53.263Z,1.10
2018-10-04T13:05:55.846Z,1.60
2018-10-04T13:06:58.534Z,3.70
2018-10-04T13:08:01.026Z,3.27
2018-10-04T13:09:04.987Z,2.87
2018-10-04T13:10:07.575Z,2.43
2018-10-04T13:11:10.158Z,1.47
2018-10-04T13:12:13.178Z,2.17
2018-10-04T13:13:15.738Z,3.17
2018-10-04T13:14:18.292Z,2.03
2018-10-04T13:15:20.854Z,1.33
2018-10-04T13:16:23.422Z,1.23
2018-10-04T13:17:26.022Z,2.90
2018-10-04T13:18:28.576Z,1.00
2018-10-04T13:19:31.138Z,2.47
2018-10-04T13:20:33.802Z,1.20
2018-10-04T13:21:36.489Z,0.90
2018-10-04T13:22:38.877Z,1.47
2018-10-04T13:23:41.558Z,1.80
2018-10-04T13:24:44.143Z,1.17
2018-10-04T13:25:46.698Z,1.73
2018-10-04T13:26:49.286Z,2.00
2018-10-04T13:37:31.899Z,2.37
2018-10-04T13:38:34.499Z,2.73
2018-10-04T13:39:37.078Z,1.73
2018-10-04T13:40:39.686Z,1.33
2018-10-04T13:41:42.262Z,1.33
2018-10-04T13:42:44.843Z,2.23
2018-10-04T13:43:47.405Z,2.30
2018-10-04T13:44:49.991Z,0.97
2018-10-04T13:45:52.566Z,0.60
2018-10-04T13:46:55.168Z,0.80
2018-10-04T13:47:57.746Z,1.37
2018-10-04T13:49:00.379Z,2.87
2018-10-04T13:50:03.002Z,0.90
2018-10-04T13:51:05.786Z,1.73
2018-10-04T13:52:08.372Z,0.73
2018-10-04T13:53:10.954Z,0.67
2018-10-04T13:54:13.506Z,2.00
2018-10-04T13:55:16.074Z,0.73
2018-10-04T13:56:18.658Z,1.07
2018-10-04T13:57:21.254Z,1.87
2018-10-04T13:58:23.822Z,0.53
2018-10-04T13:59:26.476Z,0.80
2018-10-04T14:00:29.054Z,0.83
2018-10-04T14:01:31.630Z,6.77
2018-10-04T14:02:34.263Z,5.40
2018-10-04T14:03:36.806Z,6.00
2018-10-04T14:04:39.390Z,2.27
2018-10-04T14:05:41.987Z,4.00
2018-10-04T14:06:44.572Z,2.43
2018-10-04T14:07:47.134Z,1.80
2018-10-04T14:08:49.708Z,3.00